Rockwood, Michigan
Current Conditions -  °F | °C
As of 1:54 PM on Saturday 25 Oct 2014 (Local Time) from KONZ Reporting Station
Scattered Clouds Scattered Clouds  
Wind Chill: 64°   Ceiling: Unl
Heat Index: 64°   Visibility: 10mi
Dew Point: 54°   Wind: 16mph
Humidity: 68%   Direction: 270°W
Pressure: 29.77"   Gusts: 21mph
Location:  42.07°N, 83.25°W
Report Text: KONZ 251754Z AUTO 27014G18KT 10SM SCT028 18/12 A2977 RMK AO2
Loading
Personal Weather Stations






























Interactive Weather Map
Tropical Storm Tracking
New forecast layout! Learn more

10-Day Weather Forecast

Advertisements
Track Severe Weather on mobile